sensor_id;sensor_type;location;lat;lon;timestamp;P1;durP1;ratioP1;P2;durP2;ratioP2
948;SDS011;461;51.436;7.312;2024-03-25T00:01:08;9.70;;;3.87;;
948;SDS011;461;51.436;7.312;2024-03-25T00:03:34;22.80;;;4.33;;
948;SDS011;461;51.436;7.312;2024-03-25T00:05:59;12.63;;;3.67;;
948;SDS011;461;51.436;7.312;2024-03-25T00:08:25;8.57;;;3.40;;
948;SDS011;461;51.436;7.312;2024-03-25T00:10:51;13.10;;;4.70;;
948;SDS011;461;51.436;7.312;2024-03-25T00:13:17;13.70;;;4.77;;
948;SDS011;461;51.436;7.312;2024-03-25T00:15:45;11.20;;;4.10;;
948;SDS011;461;51.436;7.312;2024-03-25T00:18:11;9.80;;;3.47;;
948;SDS011;461;51.436;7.312;2024-03-25T00:20:37;8.80;;;3.63;;
948;SDS011;461;51.436;7.312;2024-03-25T00:23:02;19.30;;;4.37;;
948;SDS011;461;51.436;7.312;2024-03-25T00:25:28;9.57;;;4.17;;
948;SDS011;461;51.436;7.312;2024-03-25T00:27:54;10.13;;;5.90;;
948;SDS011;461;51.436;7.312;2024-03-25T00:30:20;20.63;;;4.70;;
948;SDS011;461;51.436;7.312;2024-03-25T00:32:45;14.07;;;4.13;;
948;SDS011;461;51.436;7.312;2024-03-25T00:35:11;10.60;;;4.50;;
948;SDS011;461;51.436;7.312;2024-03-25T00:37:37;13.10;;;4.50;;
948;SDS011;461;51.436;7.312;2024-03-25T00:40:03;8.87;;;4.30;;
948;SDS011;461;51.436;7.312;2024-03-25T00:42:29;10.07;;;4.17;;
948;SDS011;461;51.436;7.312;2024-03-25T00:44:55;11.03;;;4.53;;
948;SDS011;461;51.436;7.312;2024-03-25T00:47:21;19.10;;;5.40;;
948;SDS011;461;51.436;7.312;2024-03-25T00:49:47;11.13;;;5.53;;
948;SDS011;461;51.436;7.312;2024-03-25T00:52:12;23.07;;;8.50;;
948;SDS011;461;51.436;7.312;2024-03-25T00:54:38;20.07;;;6.57;;
948;SDS011;461;51.436;7.312;2024-03-25T00:57:04;17.37;;;6.57;;
948;SDS011;461;51.436;7.312;2024-03-25T00:59:29;21.33;;;8.33;;
948;SDS011;461;51.436;7.312;2024-03-25T01:01:55;31.83;;;8.57;;
948;SDS011;461;51.436;7.312;2024-03-25T01:04:22;18.57;;;8.90;;
948;SDS011;461;51.436;7.312;2024-03-25T01:06:48;31.53;;;8.73;;
948;SDS011;461;51.436;7.312;2024-03-25T01:09:14;24.43;;;9.40;;
948;SDS011;461;51.436;7.312;2024-03-25T01:11:40;25.10;;;8.77;;
948;SDS011;461;51.436;7.312;2024-03-25T01:14:06;26.00;;;9.93;;
948;SDS011;461;51.436;7.312;2024-03-25T01:16:32;29.03;;;8.83;;
948;SDS011;461;51.436;7.312;2024-03-25T01:18:58;33.37;;;10.40;;
948;SDS011;461;51.436;7.312;2024-03-25T01:21:24;22.47;;;9.33;;
948;SDS011;461;51.436;7.312;2024-03-25T01:23:50;26.57;;;9.50;;
948;SDS011;461;51.436;7.312;2024-03-25T01:26:16;21.87;;;9.70;;
948;SDS011;461;51.436;7.312;2024-03-25T01:28:42;19.93;;;9.87;;
948;SDS011;461;51.436;7.312;2024-03-25T01:31:07;19.93;;;10.80;;
948;SDS011;461;51.436;7.312;2024-03-25T01:33:33;20.13;;;8.47;;
948;SDS011;461;51.436;7.312;2024-03-25T01:36:00;23.07;;;10.43;;
948;SDS011;461;51.436;7.312;2024-03-25T01:38:25;24.57;;;10.60;;
948;SDS011;461;51.436;7.312;2024-03-25T01:40:51;23.33;;;10.17;;
948;SDS011;461;51.436;7.312;2024-03-25T01:43:17;25.63;;;10.30;;
948;SDS011;461;51.436;7.312;2024-03-25T01:45:43;29.57;;;11.73;;
948;SDS011;461;51.436;7.312;2024-03-25T01:48:09;22.50;;;8.40;;
948;SDS011;461;51.436;7.312;2024-03-25T01:50:40;18.53;;;7.20;;
948;SDS011;461;51.436;7.312;2024-03-25T01:53:10;17.50;;;7.73;;
948;SDS011;461;51.436;7.312;2024-03-25T01:55:37;17.67;;;7.80;;
948;SDS011;461;51.436;7.312;2024-03-25T01:58:04;21.83;;;6.27;;
948;SDS011;461;51.436;7.312;2024-03-25T02:00:31;20.50;;;6.90;;
948;SDS011;461;51.436;7.312;2024-03-25T02:02:58;18.77;;;6.00;;
948;SDS011;461;51.436;7.312;2024-03-25T02:05:24;18.27;;;6.13;;
948;SDS011;461;51.436;7.312;2024-03-25T02:07:50;17.60;;;5.67;;
948;SDS011;461;51.436;7.312;2024-03-25T02:10:17;15.90;;;5.90;;
948;SDS011;461;51.436;7.312;2024-03-25T02:12:43;19.50;;;6.10;;
948;SDS011;461;51.436;7.312;2024-03-25T02:15:11;12.97;;;5.47;;
948;SDS011;461;51.436;7.312;2024-03-25T02:17:38;21.40;;;5.90;;
948;SDS011;461;51.436;7.312;2024-03-25T02:20:04;17.60;;;5.60;;
948;SDS011;461;51.436;7.312;2024-03-25T02:22:33;22.93;;;5.93;;
948;SDS011;461;51.436;7.312;2024-03-25T02:25:00;8.83;;;4.30;;
948;SDS011;461;51.436;7.312;2024-03-25T02:27:26;14.97;;;5.63;;
948;SDS011;461;51.436;7.312;2024-03-25T02:30:09;20.50;;;6.83;;
948;SDS011;461;51.436;7.312;2024-03-25T02:32:39;17.90;;;4.83;;
948;SDS011;461;51.436;7.312;2024-03-25T02:35:06;15.30;;;6.13;;
948;SDS011;461;51.436;7.312;2024-03-25T02:37:35;24.87;;;5.63;;
948;SDS011;461;51.436;7.312;2024-03-25T02:40:04;17.23;;;5.33;;
948;SDS011;461;51.436;7.312;2024-03-25T02:42:34;17.07;;;5.07;;
948;SDS011;461;51.436;7.312;2024-03-25T02:45:01;23.80;;;5.33;;
948;SDS011;461;51.436;7.312;2024-03-25T02:47:27;19.60;;;4.50;;
948;SDS011;461;51.436;7.312;2024-03-25T02:49:53;10.40;;;4.57;;
948;SDS011;461;51.436;7.312;2024-03-25T02:52:19;15.33;;;4.40;;
948;SDS011;461;51.436;7.312;2024-03-25T02:54:45;14.30;;;5.57;;
948;SDS011;461;51.436;7.312;2024-03-25T02:57:11;10.50;;;4.00;;
948;SDS011;461;51.436;7.312;2024-03-25T02:59:37;11.33;;;5.10;;
948;SDS011;461;51.436;7.312;2024-03-25T03:02:02;18.67;;;5.00;;
948;SDS011;461;51.436;7.312;2024-03-25T03:04:28;20.07;;;5.37;;
948;SDS011;461;51.436;7.312;2024-03-25T03:06:54;23.17;;;6.97;;
948;SDS011;461;51.436;7.312;2024-03-25T03:09:20;16.07;;;5.07;;
948;SDS011;461;51.436;7.312;2024-03-25T03:11:45;22.53;;;5.40;;
948;SDS011;461;51.436;7.312;2024-03-25T03:14:11;33.13;;;6.40;;
948;SDS011;461;51.436;7.312;2024-03-25T03:16:37;24.20;;;6.57;;
948;SDS011;461;51.436;7.312;2024-03-25T03:19:02;11.83;;;6.57;;
948;SDS011;461;51.436;7.312;2024-03-25T03:21:28;18.53;;;5.50;;
948;SDS011;461;51.436;7.312;2024-03-25T03:23:55;11.43;;;5.10;;
948;SDS011;461;51.436;7.312;2024-03-25T03:26:21;30.10;;;7.50;;
948;SDS011;461;51.436;7.312;2024-03-25T03:28:51;16.90;;;6.00;;
948;SDS011;461;51.436;7.312;2024-03-25T03:31:20;14.57;;;5.63;;
948;SDS011;461;51.436;7.312;2024-03-25T03:33:46;23.33;;;8.80;;
948;SDS011;461;51.436;7.312;2024-03-25T03:36:14;19.60;;;6.70;;
948;SDS011;461;51.436;7.312;2024-03-25T03:38:43;18.37;;;5.80;;
948;SDS011;461;51.436;7.312;2024-03-25T03:41:09;18.13;;;6.23;;
948;SDS011;461;51.436;7.312;2024-03-25T03:43:35;17.23;;;6.93;;
948;SDS011;461;51.436;7.312;2024-03-25T03:46:01;16.57;;;7.33;;
948;SDS011;461;51.436;7.312;2024-03-25T03:48:27;16.10;;;7.27;;
948;SDS011;461;51.436;7.312;2024-03-25T03:50:53;22.07;;;7.90;;
948;SDS011;461;51.436;7.312;2024-03-25T03:53:19;14.70;;;6.80;;
948;SDS011;461;51.436;7.312;2024-03-25T03:58:25;11.27;;;6.60;;
948;SDS011;461;51.436;7.312;2024-03-25T04:00:51;19.87;;;7.13;;
948;SDS011;461;51.436;7.312;2024-03-25T04:03:17;25.90;;;6.70;;
948;SDS011;461;51.436;7.312;2024-03-25T04:05:44;14.90;;;7.10;;
948;SDS011;461;51.436;7.312;2024-03-25T04:08:09;21.87;;;7.80;;
948;SDS011;461;51.436;7.312;2024-03-25T04:10:35;12.33;;;6.20;;
948;SDS011;461;51.436;7.312;2024-03-25T04:13:01;15.03;;;6.83;;
948;SDS011;461;51.436;7.312;2024-03-25T04:15:28;14.53;;;7.37;;
948;SDS011;461;51.436;7.312;2024-03-25T04:17:54;26.03;;;9.50;;
948;SDS011;461;51.436;7.312;2024-03-25T04:20:19;21.47;;;9.00;;
948;SDS011;461;51.436;7.312;2024-03-25T04:22:46;18.70;;;7.33;;
948;SDS011;461;51.436;7.312;2024-03-25T04:25:12;20.93;;;7.97;;
948;SDS011;461;51.436;7.312;2024-03-25T04:27:41;24.70;;;8.33;;
948;SDS011;461;51.436;7.312;2024-03-25T04:30:08;20.20;;;7.17;;
948;SDS011;461;51.436;7.312;2024-03-25T04:32:36;19.03;;;6.20;;
948;SDS011;461;51.436;7.312;2024-03-25T04:35:03;20.80;;;6.73;;
948;SDS011;461;51.436;7.312;2024-03-25T04:37:29;24.73;;;8.90;;
948;SDS011;461;51.436;7.312;2024-03-25T04:39:55;22.40;;;7.60;;
948;SDS011;461;51.436;7.312;2024-03-25T04:42:21;20.00;;;7.70;;
948;SDS011;461;51.436;7.312;2024-03-25T04:44:47;21.20;;;7.37;;
948;SDS011;461;51.436;7.312;2024-03-25T04:47:13;15.43;;;6.90;;
948;SDS011;461;51.436;7.312;2024-03-25T04:49:42;20.30;;;8.20;;
948;SDS011;461;51.436;7.312;2024-03-25T04:52:08;26.93;;;8.37;;
948;SDS011;461;51.436;7.312;2024-03-25T04:54:34;17.50;;;6.97;;
948;SDS011;461;51.436;7.312;2024-03-25T04:56:59;18.87;;;7.10;;
948;SDS011;461;51.436;7.312;2024-03-25T04:59:25;15.00;;;6.50;;
948;SDS011;461;51.436;7.312;2024-03-25T05:01:51;12.83;;;6.40;;
948;SDS011;461;51.436;7.312;2024-03-25T05:04:18;24.60;;;7.57;;
948;SDS011;461;51.436;7.312;2024-03-25T05:06:45;15.63;;;6.30;;
948;SDS011;461;51.436;7.312;2024-03-25T05:09:11;14.47;;;6.57;;
948;SDS011;461;51.436;7.312;2024-03-25T05:11:37;15.33;;;6.93;;
948;SDS011;461;51.436;7.312;2024-03-25T05:14:02;27.10;;;7.97;;
948;SDS011;461;51.436;7.312;2024-03-25T05:16:28;18.43;;;7.30;;
948;SDS011;461;51.436;7.312;2024-03-25T05:18:54;15.33;;;7.10;;
948;SDS011;461;51.436;7.312;2024-03-25T05:21:19;15.57;;;7.57;;
948;SDS011;461;51.436;7.312;2024-03-25T05:23:45;18.60;;;7.13;;
948;SDS011;461;51.436;7.312;2024-03-25T05:26:11;15.03;;;6.17;;
948;SDS011;461;51.436;7.312;2024-03-25T05:28:36;19.30;;;7.57;;
948;SDS011;461;51.436;7.312;2024-03-25T05:31:06;23.27;;;7.07;;
948;SDS011;461;51.436;7.312;2024-03-25T05:33:32;19.00;;;6.90;;
948;SDS011;461;51.436;7.312;2024-03-25T05:35:58;27.50;;;7.53;;
948;SDS011;461;51.436;7.312;2024-03-25T05:38:25;20.70;;;7.03;;
948;SDS011;461;51.436;7.312;2024-03-25T05:40:51;18.03;;;6.37;;
948;SDS011;461;51.436;7.312;2024-03-25T05:43:18;15.03;;;7.60;;
948;SDS011;461;51.436;7.312;2024-03-25T05:45:52;19.67;;;6.43;;
948;SDS011;461;51.436;7.312;2024-03-25T05:48:20;17.63;;;7.93;;
948;SDS011;461;51.436;7.312;2024-03-25T05:51:00;15.63;;;6.40;;
948;SDS011;461;51.436;7.312;2024-03-25T05:53:27;17.87;;;6.23;;
948;SDS011;461;51.436;7.312;2024-03-25T05:55:53;18.93;;;6.90;;
948;SDS011;461;51.436;7.312;2024-03-25T05:58:20;16.17;;;7.00;;
948;SDS011;461;51.436;7.312;2024-03-25T06:00:46;14.43;;;5.87;;
948;SDS011;461;51.436;7.312;2024-03-25T06:03:13;17.43;;;6.63;;
948;SDS011;461;51.436;7.312;2024-03-25T06:05:38;14.27;;;6.40;;
948;SDS011;461;51.436;7.312;2024-03-25T06:08:05;18.40;;;6.40;;
948;SDS011;461;51.436;7.312;2024-03-25T06:10:38;17.70;;;7.20;;
948;SDS011;461;51.436;7.312;2024-03-25T06:13:04;15.00;;;6.30;;
948;SDS011;461;51.436;7.312;2024-03-25T06:15:30;12.43;;;6.27;;
948;SDS011;461;51.436;7.312;2024-03-25T06:17:56;17.80;;;6.43;;
948;SDS011;461;51.436;7.312;2024-03-25T06:20:22;20.83;;;7.33;;
948;SDS011;461;51.436;7.312;2024-03-25T06:22:47;11.83;;;6.00;;
948;SDS011;461;51.436;7.312;2024-03-25T06:25:13;23.33;;;6.80;;
948;SDS011;461;51.436;7.312;2024-03-25T06:27:39;19.10;;;6.17;;
948;SDS011;461;51.436;7.312;2024-03-25T06:30:05;24.40;;;6.80;;
948;SDS011;461;51.436;7.312;2024-03-25T06:32:51;14.30;;;5.07;;
948;SDS011;461;51.436;7.312;2024-03-25T06:35:35;17.80;;;6.40;;
948;SDS011;461;51.436;7.312;2024-03-25T06:38:01;14.03;;;4.97;;
948;SDS011;461;51.436;7.312;2024-03-25T06:40:26;17.90;;;6.17;;
948;SDS011;461;51.436;7.312;2024-03-25T06:42:52;19.17;;;7.30;;
948;SDS011;461;51.436;7.312;2024-03-25T06:45:18;15.40;;;5.30;;
948;SDS011;461;51.436;7.312;2024-03-25T06:47:43;11.33;;;5.17;;
948;SDS011;461;51.436;7.312;2024-03-25T06:50:09;15.67;;;5.60;;
948;SDS011;461;51.436;7.312;2024-03-25T06:52:35;20.87;;;6.57;;
948;SDS011;461;51.436;7.312;2024-03-25T06:55:01;14.20;;;5.10;;
948;SDS011;461;51.436;7.312;2024-03-25T06:57:27;15.43;;;6.30;;
948;SDS011;461;51.436;7.312;2024-03-25T06:59:53;14.13;;;5.70;;
948;SDS011;461;51.436;7.312;2024-03-25T07:02:18;14.93;;;5.57;;
948;SDS011;461;51.436;7.312;2024-03-25T07:04:44;14.03;;;5.37;;
948;SDS011;461;51.436;7.312;2024-03-25T07:07:10;13.47;;;5.10;;
948;SDS011;461;51.436;7.312;2024-03-25T07:09:35;13.13;;;6.13;;
948;SDS011;461;51.436;7.312;2024-03-25T07:12:01;11.50;;;5.37;;
948;SDS011;461;51.436;7.312;2024-03-25T07:14:27;18.97;;;6.50;;
948;SDS011;461;51.436;7.312;2024-03-25T07:16:53;15.80;;;7.03;;
948;SDS011;461;51.436;7.312;2024-03-25T07:19:18;15.67;;;5.03;;
948;SDS011;461;51.436;7.312;2024-03-25T07:21:44;13.93;;;4.50;;
948;SDS011;461;51.436;7.312;2024-03-25T07:24:10;13.10;;;4.93;;
948;SDS011;461;51.436;7.312;2024-03-25T07:26:36;13.80;;;4.87;;
948;SDS011;461;51.436;7.312;2024-03-25T07:29:02;12.37;;;5.43;;
948;SDS011;461;51.436;7.312;2024-03-25T07:31:28;12.40;;;5.03;;
948;SDS011;461;51.436;7.312;2024-03-25T07:33:54;10.63;;;4.73;;
948;SDS011;461;51.436;7.312;2024-03-25T07:36:20;12.33;;;5.23;;
948;SDS011;461;51.436;7.312;2024-03-25T07:38:45;12.33;;;4.97;;
948;SDS011;461;51.436;7.312;2024-03-25T07:41:11;13.27;;;6.07;;
948;SDS011;461;51.436;7.312;2024-03-25T07:43:37;14.20;;;5.83;;
948;SDS011;461;51.436;7.312;2024-03-25T07:46:03;13.10;;;5.30;;
948;SDS011;461;51.436;7.312;2024-03-25T07:48:30;13.33;;;5.47;;
948;SDS011;461;51.436;7.312;2024-03-25T07:50:55;13.43;;;4.30;;
948;SDS011;461;51.436;7.312;2024-03-25T07:53:21;13.40;;;3.83;;
948;SDS011;461;51.436;7.312;2024-03-25T07:55:47;13.40;;;4.40;;
948;SDS011;461;51.436;7.312;2024-03-25T07:58:12;16.10;;;4.37;;
948;SDS011;461;51.436;7.312;2024-03-25T08:00:38;12.47;;;4.10;;
948;SDS011;461;51.436;7.312;2024-03-25T08:03:04;13.43;;;4.77;;
948;SDS011;461;51.436;7.312;2024-03-25T08:05:30;11.67;;;3.70;;
948;SDS011;461;51.436;7.312;2024-03-25T08:07:56;11.27;;;4.27;;
948;SDS011;461;51.436;7.312;2024-03-25T08:10:21;12.27;;;4.40;;
948;SDS011;461;51.436;7.312;2024-03-25T08:12:47;14.13;;;4.10;;
948;SDS011;461;51.436;7.312;2024-03-25T08:15:13;20.07;;;5.27;;
948;SDS011;461;51.436;7.312;2024-03-25T08:17:39;16.23;;;4.10;;
948;SDS011;461;51.436;7.312;2024-03-25T08:20:05;13.13;;;4.03;;
948;SDS011;461;51.436;7.312;2024-03-25T08:22:31;8.90;;;3.40;;
948;SDS011;461;51.436;7.312;2024-03-25T08:24:57;17.23;;;4.30;;
948;SDS011;461;51.436;7.312;2024-03-25T08:27:22;12.13;;;3.63;;
948;SDS011;461;51.436;7.312;2024-03-25T08:29:48;12.60;;;3.47;;
948;SDS011;461;51.436;7.312;2024-03-25T08:32:16;13.93;;;3.47;;
948;SDS011;461;51.436;7.312;2024-03-25T08:34:42;18.73;;;6.40;;
948;SDS011;461;51.436;7.312;2024-03-25T08:37:07;12.47;;;4.07;;
948;SDS011;461;51.436;7.312;2024-03-25T08:39:33;13.20;;;4.33;;
948;SDS011;461;51.436;7.312;2024-03-25T08:41:59;10.20;;;3.77;;
948;SDS011;461;51.436;7.312;2024-03-25T08:44:24;17.13;;;3.73;;
948;SDS011;461;51.436;7.312;2024-03-25T08:46:50;14.33;;;4.10;;
948;SDS011;461;51.436;7.312;2024-03-25T08:49:16;12.90;;;3.30;;
948;SDS011;461;51.436;7.312;2024-03-25T08:51:43;10.90;;;4.03;;
948;SDS011;461;51.436;7.312;2024-03-25T08:54:09;16.40;;;4.13;;
948;SDS011;461;51.436;7.312;2024-03-25T08:56:35;15.17;;;3.30;;
948;SDS011;461;51.436;7.312;2024-03-25T08:59:00;14.60;;;3.37;;
948;SDS011;461;51.436;7.312;2024-03-25T09:01:26;13.63;;;3.93;;
948;SDS011;461;51.436;7.312;2024-03-25T09:03:52;9.40;;;3.80;;
948;SDS011;461;51.436;7.312;2024-03-25T09:06:18;7.23;;;3.30;;
948;SDS011;461;51.436;7.312;2024-03-25T09:08:44;7.00;;;3.03;;
948;SDS011;461;51.436;7.312;2024-03-25T09:11:28;13.83;;;4.60;;
948;SDS011;461;51.436;7.312;2024-03-25T09:13:58;11.60;;;2.90;;
948;SDS011;461;51.436;7.312;2024-03-25T09:16:24;8.70;;;3.50;;
948;SDS011;461;51.436;7.312;2024-03-25T09:18:50;12.20;;;3.30;;
948;SDS011;461;51.436;7.312;2024-03-25T09:21:18;14.10;;;3.30;;
948;SDS011;461;51.436;7.312;2024-03-25T09:23:46;8.23;;;3.40;;
948;SDS011;461;51.436;7.312;2024-03-25T09:26:16;11.37;;;2.40;;
948;SDS011;461;51.436;7.312;2024-03-25T09:28:44;8.63;;;3.90;;
948;SDS011;461;51.436;7.312;2024-03-25T09:31:13;14.50;;;3.33;;
948;SDS011;461;51.436;7.312;2024-03-25T09:33:38;10.80;;;2.80;;
948;SDS011;461;51.436;7.312;2024-03-25T09:36:04;7.10;;;2.40;;
948;SDS011;461;51.436;7.312;2024-03-25T09:38:30;7.53;;;2.90;;
948;SDS011;461;51.436;7.312;2024-03-25T09:40:56;10.13;;;2.40;;
948;SDS011;461;51.436;7.312;2024-03-25T09:43:39;5.17;;;2.37;;
948;SDS011;461;51.436;7.312;2024-03-25T09:46:10;6.73;;;2.40;;
948;SDS011;461;51.436;7.312;2024-03-25T09:48:36;6.27;;;2.53;;
948;SDS011;461;51.436;7.312;2024-03-25T09:54:54;6.00;;;2.53;;
948;SDS011;461;51.436;7.312;2024-03-25T09:57:20;6.60;;;2.20;;
948;SDS011;461;51.436;7.312;2024-03-25T09:59:46;10.33;;;3.03;;
948;SDS011;461;51.436;7.312;2024-03-25T10:02:12;9.50;;;2.90;;
948;SDS011;461;51.436;7.312;2024-03-25T10:04:40;6.77;;;2.00;;
948;SDS011;461;51.436;7.312;2024-03-25T10:07:10;9.70;;;3.63;;
948;SDS011;461;51.436;7.312;2024-03-25T10:09:36;4.70;;;2.57;;
948;SDS011;461;51.436;7.312;2024-03-25T10:12:01;8.37;;;2.90;;
948;SDS011;461;51.436;7.312;2024-03-25T10:14:27;7.40;;;2.67;;
948;SDS011;461;51.436;7.312;2024-03-25T10:16:53;7.20;;;2.50;;
948;SDS011;461;51.436;7.312;2024-03-25T10:19:22;7.87;;;2.60;;
948;SDS011;461;51.436;7.312;2024-03-25T10:22:00;9.27;;;2.90;;
948;SDS011;461;51.436;7.312;2024-03-25T10:24:36;7.47;;;3.10;;
948;SDS011;461;51.436;7.312;2024-03-25T10:27:05;3.57;;;1.80;;
948;SDS011;461;51.436;7.312;2024-03-25T10:29:34;5.83;;;2.10;;
948;SDS011;461;51.436;7.312;2024-03-25T10:32:01;13.30;;;2.57;;
948;SDS011;461;51.436;7.312;2024-03-25T10:34:29;9.00;;;2.53;;
948;SDS011;461;51.436;7.312;2024-03-25T10:36:58;7.07;;;2.37;;
948;SDS011;461;51.436;7.312;2024-03-25T10:39:30;7.43;;;2.20;;
948;SDS011;461;51.436;7.312;2024-03-25T10:41:57;5.83;;;2.10;;
948;SDS011;461;51.436;7.312;2024-03-25T10:44:29;7.93;;;2.27;;
948;SDS011;461;51.436;7.312;2024-03-25T10:46:57;6.90;;;2.00;;
948;SDS011;461;51.436;7.312;2024-03-25T10:49:40;5.23;;;1.87;;
948;SDS011;461;51.436;7.312;2024-03-25T10:52:14;3.37;;;1.60;;
948;SDS011;461;51.436;7.312;2024-03-25T10:54:41;4.70;;;2.03;;
948;SDS011;461;51.436;7.312;2024-03-25T10:57:09;5.77;;;2.10;;
948;SDS011;461;51.436;7.312;2024-03-25T10:59:35;5.00;;;2.20;;
948;SDS011;461;51.436;7.312;2024-03-25T11:02:09;5.33;;;2.10;;
948;SDS011;461;51.436;7.312;2024-03-25T11:04:36;3.40;;;1.67;;
948;SDS011;461;51.436;7.312;2024-03-25T11:07:06;4.47;;;1.50;;
948;SDS011;461;51.436;7.312;2024-03-25T11:09:33;6.80;;;1.90;;
948;SDS011;461;51.436;7.312;2024-03-25T11:11:58;5.90;;;2.37;;
948;SDS011;461;51.436;7.312;2024-03-25T11:14:25;8.00;;;2.80;;
948;SDS011;461;51.436;7.312;2024-03-25T11:16:54;7.20;;;2.00;;
948;SDS011;461;51.436;7.312;2024-03-25T11:19:20;9.10;;;2.43;;
948;SDS011;461;51.436;7.312;2024-03-25T11:21:50;4.97;;;1.87;;
948;SDS011;461;51.436;7.312;2024-03-25T11:24:26;5.70;;;2.00;;
948;SDS011;461;51.436;7.312;2024-03-25T11:26:53;5.80;;;2.10;;
948;SDS011;461;51.436;7.312;2024-03-25T11:29:19;10.00;;;2.10;;
948;SDS011;461;51.436;7.312;2024-03-25T11:31:45;8.00;;;2.03;;
948;SDS011;461;51.436;7.312;2024-03-25T11:34:13;5.60;;;1.90;;
948;SDS011;461;51.436;7.312;2024-03-25T11:36:39;3.53;;;2.47;;
948;SDS011;461;51.436;7.312;2024-03-25T11:39:05;3.50;;;1.97;;
948;SDS011;461;51.436;7.312;2024-03-25T11:41:44;8.70;;;2.60;;
948;SDS011;461;51.436;7.312;2024-03-25T11:44:10;3.97;;;2.00;;
948;SDS011;461;51.436;7.312;2024-03-25T11:46:40;7.20;;;2.43;;
948;SDS011;461;51.436;7.312;2024-03-25T11:49:06;5.87;;;2.00;;
948;SDS011;461;51.436;7.312;2024-03-25T11:51:34;4.67;;;2.07;;
948;SDS011;461;51.436;7.312;2024-03-25T11:54:03;7.37;;;2.60;;
948;SDS011;461;51.436;7.312;2024-03-25T11:56:29;2.70;;;1.57;;
948;SDS011;461;51.436;7.312;2024-03-25T11:58:56;5.50;;;1.90;;
948;SDS011;461;51.436;7.312;2024-03-25T12:01:22;6.83;;;2.00;;
948;SDS011;461;51.436;7.312;2024-03-25T12:03:48;8.93;;;2.63;;
948;SDS011;461;51.436;7.312;2024-03-25T12:06:14;5.23;;;2.07;;
948;SDS011;461;51.436;7.312;2024-03-25T12:08:40;5.20;;;2.40;;
948;SDS011;461;51.436;7.312;2024-03-25T12:11:26;6.30;;;2.13;;
948;SDS011;461;51.436;7.312;2024-03-25T12:13:52;4.10;;;1.93;;
948;SDS011;461;51.436;7.312;2024-03-25T12:16:18;6.70;;;2.87;;
948;SDS011;461;51.436;7.312;2024-03-25T12:18:43;6.17;;;1.93;;
948;SDS011;461;51.436;7.312;2024-03-25T12:21:10;5.53;;;1.80;;
948;SDS011;461;51.436;7.312;2024-03-25T12:23:36;4.60;;;1.90;;
948;SDS011;461;51.436;7.312;2024-03-25T12:26:03;8.30;;;2.10;;
948;SDS011;461;51.436;7.312;2024-03-25T12:28:31;4.70;;;1.90;;
948;SDS011;461;51.436;7.312;2024-03-25T12:30:57;6.67;;;1.80;;
948;SDS011;461;51.436;7.312;2024-03-25T12:33:23;4.60;;;2.57;;
948;SDS011;461;51.436;7.312;2024-03-25T12:35:49;4.97;;;1.90;;
948;SDS011;461;51.436;7.312;2024-03-25T12:38:29;5.67;;;1.90;;
948;SDS011;461;51.436;7.312;2024-03-25T12:41:09;10.77;;;2.10;;
948;SDS011;461;51.436;7.312;2024-03-25T12:43:42;5.20;;;2.30;;
948;SDS011;461;51.436;7.312;2024-03-25T12:46:08;5.33;;;2.30;;
948;SDS011;461;51.436;7.312;2024-03-25T12:48:38;6.83;;;2.37;;
948;SDS011;461;51.436;7.312;2024-03-25T13:54:45;6.00;;;2.07;;
948;SDS011;461;51.436;7.312;2024-03-25T14:00:15;5.20;;;2.10;;
948;SDS011;461;51.436;7.312;2024-03-25T14:02:41;4.40;;;2.53;;
948;SDS011;461;51.436;7.312;2024-03-25T14:05:07;4.60;;;1.77;;
948;SDS011;461;51.436;7.312;2024-03-25T14:07:33;3.30;;;1.70;;
948;SDS011;461;51.436;7.312;2024-03-25T14:09:59;6.87;;;1.90;;
948;SDS011;461;51.436;7.312;2024-03-25T14:12:25;3.70;;;1.70;;
948;SDS011;461;51.436;7.312;2024-03-25T14:14:52;6.10;;;1.90;;
948;SDS011;461;51.436;7.312;2024-03-25T14:17:18;3.60;;;1.37;;
948;SDS011;461;51.436;7.312;2024-03-25T14:19:44;3.80;;;1.60;;
948;SDS011;461;51.436;7.312;2024-03-25T14:22:10;3.77;;;2.00;;
948;SDS011;461;51.436;7.312;2024-03-25T14:24:36;7.77;;;2.37;;
948;SDS011;461;51.436;7.312;2024-03-25T14:27:02;6.83;;;2.63;;
948;SDS011;461;51.436;7.312;2024-03-25T14:29:28;6.40;;;2.70;;
948;SDS011;461;51.436;7.312;2024-03-25T14:31:54;3.73;;;1.77;;
948;SDS011;461;51.436;7.312;2024-03-25T14:34:21;3.40;;;2.20;;
948;SDS011;461;51.436;7.312;2024-03-25T14:36:47;4.10;;;2.57;;
948;SDS011;461;51.436;7.312;2024-03-25T14:39:14;6.30;;;2.00;;
948;SDS011;461;51.436;7.312;2024-03-25T14:41:40;4.93;;;1.80;;
948;SDS011;461;51.436;7.312;2024-03-25T14:44:08;7.40;;;1.97;;
948;SDS011;461;51.436;7.312;2024-03-25T14:46:35;6.37;;;1.93;;
948;SDS011;461;51.436;7.312;2024-03-25T14:49:01;5.47;;;2.17;;
948;SDS011;461;51.436;7.312;2024-03-25T14:51:27;2.40;;;1.60;;
948;SDS011;461;51.436;7.312;2024-03-25T14:53:53;3.53;;;1.90;;
948;SDS011;461;51.436;7.312;2024-03-25T14:56:19;5.60;;;1.53;;
948;SDS011;461;51.436;7.312;2024-03-25T14:58:45;4.30;;;1.63;;
948;SDS011;461;51.436;7.312;2024-03-25T15:01:12;4.40;;;2.17;;
948;SDS011;461;51.436;7.312;2024-03-25T15:03:38;12.23;;;1.83;;
948;SDS011;461;51.436;7.312;2024-03-25T15:06:04;3.47;;;1.93;;
948;SDS011;461;51.436;7.312;2024-03-25T15:08:34;5.63;;;1.80;;
948;SDS011;461;51.436;7.312;2024-03-25T15:11:02;4.73;;;1.80;;
948;SDS011;461;51.436;7.312;2024-03-25T15:13:29;3.23;;;2.00;;
948;SDS011;461;51.436;7.312;2024-03-25T15:15:56;5.97;;;2.17;;
948;SDS011;461;51.436;7.312;2024-03-25T15:18:22;4.20;;;1.70;;
948;SDS011;461;51.436;7.312;2024-03-25T15:20:59;7.77;;;2.63;;
948;SDS011;461;51.436;7.312;2024-03-25T15:23:25;4.87;;;1.90;;
948;SDS011;461;51.436;7.312;2024-03-25T15:25:51;4.27;;;1.90;;
948;SDS011;461;51.436;7.312;2024-03-25T15:28:18;3.30;;;1.87;;
948;SDS011;461;51.436;7.312;2024-03-25T15:30:45;6.40;;;2.30;;
948;SDS011;461;51.436;7.312;2024-03-25T15:33:11;3.50;;;1.77;;
948;SDS011;461;51.436;7.312;2024-03-25T15:35:37;8.17;;;1.70;;
948;SDS011;461;51.436;7.312;2024-03-25T15:38:03;5.33;;;2.07;;
948;SDS011;461;51.436;7.312;2024-03-25T15:40:29;4.43;;;2.13;;
948;SDS011;461;51.436;7.312;2024-03-25T15:42:56;6.70;;;1.73;;
948;SDS011;461;51.436;7.312;2024-03-25T15:45:22;2.40;;;1.53;;
948;SDS011;461;51.436;7.312;2024-03-25T15:47:51;5.93;;;2.73;;
948;SDS011;461;51.436;7.312;2024-03-25T15:50:17;10.30;;;1.87;;
948;SDS011;461;51.436;7.312;2024-03-25T15:52:43;4.70;;;1.63;;
948;SDS011;461;51.436;7.312;2024-03-25T15:55:09;4.50;;;2.00;;
948;SDS011;461;51.436;7.312;2024-03-25T15:57:35;6.13;;;2.27;;
948;SDS011;461;51.436;7.312;2024-03-25T16:00:01;4.47;;;1.67;;
948;SDS011;461;51.436;7.312;2024-03-25T16:02:29;3.30;;;1.50;;
948;SDS011;461;51.436;7.312;2024-03-25T16:04:55;6.60;;;1.67;;
948;SDS011;461;51.436;7.312;2024-03-25T16:07:22;7.40;;;1.67;;
948;SDS011;461;51.436;7.312;2024-03-25T16:09:48;12.43;;;2.77;;
948;SDS011;461;51.436;7.312;2024-03-25T16:12:14;3.93;;;1.20;;
948;SDS011;461;51.436;7.312;2024-03-25T16:14:40;4.20;;;1.67;;
948;SDS011;461;51.436;7.312;2024-03-25T16:17:08;6.00;;;1.70;;
948;SDS011;461;51.436;7.312;2024-03-25T16:19:35;10.43;;;2.00;;
948;SDS011;461;51.436;7.312;2024-03-25T16:22:00;3.23;;;1.50;;
948;SDS011;461;51.436;7.312;2024-03-25T16:24:26;5.17;;;1.97;;
948;SDS011;461;51.436;7.312;2024-03-25T16:26:52;4.27;;;1.77;;
948;SDS011;461;51.436;7.312;2024-03-25T16:53:23;3.70;;;1.97;;
948;SDS011;461;51.436;7.312;2024-03-25T16:55:49;2.50;;;1.77;;
948;SDS011;461;51.436;7.312;2024-03-25T16:58:15;5.13;;;1.70;;
948;SDS011;461;51.436;7.312;2024-03-25T17:00:42;7.90;;;2.10;;
948;SDS011;461;51.436;7.312;2024-03-25T17:03:08;5.67;;;1.47;;
948;SDS011;461;51.436;7.312;2024-03-25T17:05:33;5.17;;;2.80;;
948;SDS011;461;51.436;7.312;2024-03-25T17:08:00;6.43;;;2.00;;
948;SDS011;461;51.436;7.312;2024-03-25T17:10:28;5.73;;;2.40;;